RYR4UA EDDN-LKPR
Flight info
| Callsign | RYR4UA |
|---|---|
| Flight time | 0h 32m |
| Altitude | 27000 |
| Route | ERETO1C ERETO Z650 NOGRA N869 RONIG Z35 ODOMO DCT LOMKI |
| Aircraft | B738/M-SDE2E3FGHIRWXY/LB1 |
Departure
| Time | 2026-05-01 08:36 |
|---|---|
| Airport | Nuremberg Airport (EDDN) |
Arrival
| Time | 2026-05-01 09:08 |
|---|---|
| Airport | Václav Havel Airport Prague (LKPR) |
| Time | Latitude | Longitude | Altitude | Speed | Heading |
|---|---|---|---|---|---|
| 2026-05-01 08:14 | 49.49550 | 11.07456 | 1026 ft | 0 kts | 188° |
| 2026-05-01 08:28 | 49.49563 | 11.07459 | 1026 ft | 2 kts | 191° |
| 2026-05-01 08:29 | 49.49579 | 11.07465 | 1027 ft | 2 kts | 195° |
| 2026-05-01 08:29 | 49.49595 | 11.07473 | 1027 ft | 2 kts | 207° |
| 2026-05-01 08:29 | 49.49608 | 11.07488 | 1026 ft | 2 kts | 239° |
| 2026-05-01 08:29 | 49.49612 | 11.07511 | 1026 ft | 2 kts | 274° |
| 2026-05-01 08:30 | 49.49611 | 11.07519 | 1026 ft | 0 kts | 277° |
| 2026-05-01 08:30 | 49.49611 | 11.07518 | 1026 ft | 0 kts | 277° |
| 2026-05-01 08:30 | 49.49612 | 11.07516 | 1026 ft | 0 kts | 277° |
| 2026-05-01 08:30 | 49.49612 | 11.07508 | 1025 ft | 1 kts | 277° |
| 2026-05-01 08:31 | 49.49613 | 11.07503 | 1025 ft | 0 kts | 277° |
| 2026-05-01 08:31 | 49.49613 | 11.07497 | 1027 ft | 2 kts | 277° |
| 2026-05-01 08:32 | 49.49617 | 11.07454 | 1027 ft | 7 kts | 278° |
| 2026-05-01 08:32 | 49.49629 | 11.07339 | 1026 ft | 13 kts | 278° |
| 2026-05-01 08:32 | 49.49649 | 11.07232 | 1022 ft | 8 kts | 325° |
| 2026-05-01 08:32 | 49.49707 | 11.07232 | 1021 ft | 8 kts | 349° |
| 2026-05-01 08:33 | 49.49742 | 11.07155 | 1024 ft | 12 kts | 279° |
| 2026-05-01 08:33 | 49.49759 | 11.06980 | 1020 ft | 21 kts | 278° |
| 2026-05-01 08:33 | 49.49782 | 11.06743 | 1017 ft | 24 kts | 278° |
| 2026-05-01 08:33 | 49.49807 | 11.06497 | 1017 ft | 23 kts | 278° |
| 2026-05-01 08:34 | 49.49830 | 11.06259 | 1018 ft | 22 kts | 278° |
| 2026-05-01 08:34 | 49.49852 | 11.06040 | 1020 ft | 16 kts | 284° |
| 2026-05-01 08:34 | 49.49937 | 11.05952 | 1020 ft | 15 kts | 339° |
| 2026-05-01 08:34 | 49.50036 | 11.05969 | 1017 ft | 14 kts | 49° |
| 2026-05-01 08:35 | 49.50037 | 11.06110 | 1019 ft | 16 kts | 98° |
| 2026-05-01 08:35 | 49.49985 | 11.06637 | 1019 ft | 84 kts | 98° |
| 2026-05-01 08:35 | 49.49867 | 11.07837 | 1035 ft | 140 kts | 99° |
| 2026-05-01 08:35 | 49.49703 | 11.09416 | 1507 ft | 150 kts | 99° |
| 2026-05-01 08:36 | 49.49519 | 11.11018 | 2193 ft | 159 kts | 101° |
| 2026-05-01 08:36 | 49.49307 | 11.12759 | 2757 ft | 173 kts | 101° |
| 2026-05-01 08:36 | 49.49103 | 11.14675 | 3204 ft | 190 kts | 100° |
| 2026-05-01 08:36 | 49.49064 | 11.16836 | 3393 ft | 214 kts | 85° |
| 2026-05-01 08:37 | 49.49473 | 11.19150 | 3601 ft | 237 kts | 69° |
| 2026-05-01 08:37 | 49.50406 | 11.21365 | 4025 ft | 256 kts | 51° |
| 2026-05-01 08:37 | 49.51774 | 11.23177 | 4846 ft | 260 kts | 41° |
| 2026-05-01 08:37 | 49.53233 | 11.24835 | 5700 ft | 261 kts | 40° |
| 2026-05-01 08:38 | 49.54695 | 11.26509 | 6514 ft | 264 kts | 40° |
| 2026-05-01 08:38 | 49.56160 | 11.28222 | 7092 ft | 263 kts | 40° |
| 2026-05-01 08:38 | 49.57614 | 11.29943 | 7402 ft | 266 kts | 40° |
| 2026-05-01 08:38 | 49.59124 | 11.31621 | 7459 ft | 272 kts | 32° |
| 2026-05-01 08:39 | 49.60721 | 11.33199 | 8183 ft | 272 kts | 40° |
| 2026-05-01 08:39 | 49.62191 | 11.35056 | 8998 ft | 274 kts | 43° |
| 2026-05-01 08:39 | 49.63652 | 11.36964 | 9859 ft | 276 kts | 43° |
| 2026-05-01 08:39 | 49.65104 | 11.38842 | 10710 ft | 278 kts | 42° |
| 2026-05-01 08:40 | 49.68328 | 11.42940 | 11244 ft | 324 kts | 41° |
| 2026-05-01 08:40 | 49.70140 | 11.45209 | 11526 ft | 344 kts | 41° |
| 2026-05-01 08:40 | 49.72034 | 11.47560 | 12139 ft | 351 kts | 40° |
| 2026-05-01 08:41 | 49.73918 | 11.49987 | 12913 ft | 352 kts | 46° |
| 2026-05-01 08:41 | 49.75452 | 11.52926 | 13712 ft | 353 kts | 59° |
| 2026-05-01 08:41 | 49.76545 | 11.56339 | 14513 ft | 355 kts | 69° |
| 2026-05-01 08:41 | 49.77361 | 11.59963 | 15246 ft | 358 kts | 71° |
| 2026-05-01 08:42 | 49.78154 | 11.63586 | 15985 ft | 361 kts | 71° |
| 2026-05-01 08:42 | 49.78963 | 11.67286 | 16742 ft | 364 kts | 71° |
| 2026-05-01 08:42 | 49.79784 | 11.71030 | 17472 ft | 368 kts | 71° |
| 2026-05-01 08:42 | 49.80616 | 11.74797 | 18187 ft | 372 kts | 71° |
| 2026-05-01 08:43 | 49.81460 | 11.78611 | 18889 ft | 376 kts | 71° |
| 2026-05-01 08:43 | 49.82313 | 11.82461 | 19486 ft | 380 kts | 70° |
| 2026-05-01 08:43 | 49.83175 | 11.86351 | 20133 ft | 382 kts | 70° |
| 2026-05-01 08:43 | 49.84038 | 11.90249 | 20818 ft | 384 kts | 70° |
| 2026-05-01 08:44 | 49.84908 | 11.94183 | 21384 ft | 388 kts | 70° |
| 2026-05-01 08:44 | 49.85786 | 11.98165 | 21909 ft | 393 kts | 70° |
| 2026-05-01 08:44 | 49.86674 | 12.02197 | 22464 ft | 397 kts | 70° |
| 2026-05-01 08:44 | 49.87570 | 12.06274 | 23016 ft | 400 kts | 70° |
| 2026-05-01 08:45 | 49.88458 | 12.10324 | 23426 ft | 404 kts | 70° |
| 2026-05-01 08:45 | 49.89361 | 12.14452 | 23412 ft | 403 kts | 70° |
| 2026-05-01 08:45 | 49.90263 | 12.18582 | 23423 ft | 403 kts | 70° |
| 2026-05-01 08:45 | 49.91164 | 12.22714 | 23440 ft | 404 kts | 70° |
| 2026-05-01 08:46 | 49.92064 | 12.26847 | 23430 ft | 404 kts | 70° |
| 2026-05-01 08:46 | 49.92945 | 12.30989 | 23438 ft | 404 kts | 72° |
| 2026-05-01 08:46 | 49.93513 | 12.35277 | 23449 ft | 408 kts | 80° |
| 2026-05-01 08:46 | 49.93790 | 12.39702 | 23893 ft | 412 kts | 83° |
| 2026-05-01 08:47 | 49.93965 | 12.44142 | 24499 ft | 411 kts | 84° |
| 2026-05-01 08:47 | 49.94105 | 12.48588 | 24990 ft | 413 kts | 85° |
| 2026-05-01 08:47 | 49.94238 | 12.53064 | 25375 ft | 417 kts | 85° |
| 2026-05-01 08:47 | 49.94374 | 12.57511 | 25421 ft | 420 kts | 84° |
| 2026-05-01 08:48 | 49.94520 | 12.62094 | 25437 ft | 430 kts | 84° |
| 2026-05-01 08:48 | 49.94675 | 12.66779 | 25441 ft | 438 kts | 84° |
| 2026-05-01 08:48 | 49.94835 | 12.71550 | 25435 ft | 444 kts | 84° |
| 2026-05-01 08:48 | 49.94995 | 12.76325 | 25419 ft | 442 kts | 85° |
| 2026-05-01 08:49 | 49.95153 | 12.81092 | 25428 ft | 440 kts | 85° |
| 2026-05-01 08:49 | 49.95310 | 12.85843 | 25450 ft | 439 kts | 84° |
| 2026-05-01 08:49 | 49.95463 | 12.90508 | 25439 ft | 437 kts | 84° |
| 2026-05-01 08:49 | 49.95594 | 12.94545 | 25435 ft | 436 kts | 84° |
| 2026-05-01 08:50 | 49.95743 | 12.99198 | 25426 ft | 436 kts | 84° |
| 2026-05-01 08:50 | 49.95884 | 13.03653 | 25429 ft | 435 kts | 84° |
| 2026-05-01 08:50 | 49.96031 | 13.08335 | 25428 ft | 435 kts | 84° |
| 2026-05-01 08:50 | 49.96176 | 13.13038 | 25434 ft | 435 kts | 84° |
| 2026-05-01 08:51 | 49.96320 | 13.17737 | 25428 ft | 433 kts | 85° |
| 2026-05-01 08:51 | 49.96457 | 13.22355 | 25087 ft | 425 kts | 85° |
| 2026-05-01 08:51 | 49.96590 | 13.26888 | 24564 ft | 417 kts | 85° |
| 2026-05-01 08:51 | 49.96720 | 13.31363 | 23983 ft | 412 kts | 85° |
| 2026-05-01 08:52 | 49.96846 | 13.35731 | 23307 ft | 407 kts | 85° |
| 2026-05-01 08:52 | 49.96971 | 13.40098 | 22666 ft | 402 kts | 85° |
| 2026-05-01 08:52 | 49.97092 | 13.44402 | 22053 ft | 396 kts | 85° |
| 2026-05-01 08:52 | 49.97211 | 13.48667 | 21439 ft | 392 kts | 85° |
| 2026-05-01 08:53 | 49.97326 | 13.52873 | 20834 ft | 387 kts | 85° |
| 2026-05-01 08:53 | 49.97439 | 13.57041 | 20250 ft | 383 kts | 85° |
| 2026-05-01 08:53 | 49.97549 | 13.61153 | 19666 ft | 379 kts | 85° |
| 2026-05-01 08:53 | 49.97656 | 13.65227 | 19095 ft | 376 kts | 85° |
| 2026-05-01 08:54 | 49.97761 | 13.69273 | 18489 ft | 373 kts | 86° |
| 2026-05-01 08:54 | 49.97864 | 13.73271 | 17849 ft | 369 kts | 85° |
| 2026-05-01 08:54 | 49.97964 | 13.77190 | 17287 ft | 365 kts | 85° |
| 2026-05-01 08:54 | 49.98062 | 13.81113 | 16697 ft | 362 kts | 85° |
| 2026-05-01 08:55 | 49.98157 | 13.85007 | 16121 ft | 358 kts | 85° |
| 2026-05-01 08:55 | 49.98250 | 13.88856 | 15558 ft | 355 kts | 85° |
| 2026-05-01 08:55 | 49.98342 | 13.92670 | 15009 ft | 352 kts | 85° |
| 2026-05-01 08:55 | 49.98432 | 13.96468 | 14471 ft | 350 kts | 85° |
| 2026-05-01 08:56 | 49.98518 | 14.00143 | 13898 ft | 348 kts | 85° |
| 2026-05-01 08:56 | 49.98603 | 14.03829 | 13326 ft | 345 kts | 85° |
| 2026-05-01 08:56 | 49.98686 | 14.07543 | 12797 ft | 343 kts | 85° |
| 2026-05-01 08:56 | 49.98769 | 14.11229 | 12252 ft | 340 kts | 86° |
| 2026-05-01 08:57 | 49.98849 | 14.14888 | 11723 ft | 337 kts | 86° |
| 2026-05-01 08:57 | 49.98928 | 14.18471 | 11275 ft | 333 kts | 86° |
| 2026-05-01 08:57 | 49.99002 | 14.21989 | 11165 ft | 319 kts | 86° |
| 2026-05-01 08:57 | 49.99072 | 14.25375 | 11026 ft | 307 kts | 86° |
| 2026-05-01 08:58 | 49.99141 | 14.28674 | 10605 ft | 306 kts | 86° |
| 2026-05-01 08:58 | 49.99208 | 14.31943 | 10365 ft | 299 kts | 86° |
| 2026-05-01 08:58 | 49.99273 | 14.35128 | 10213 ft | 290 kts | 85° |
| 2026-05-01 08:58 | 49.99334 | 14.38185 | 10073 ft | 280 kts | 85° |
| 2026-05-01 08:59 | 49.99392 | 14.41169 | 9859 ft | 274 kts | 85° |
| 2026-05-01 08:59 | 49.99451 | 14.44111 | 9566 ft | 270 kts | 85° |
| 2026-05-01 08:59 | 49.99508 | 14.47030 | 9256 ft | 269 kts | 85° |
| 2026-05-01 08:59 | 49.99563 | 14.49890 | 8954 ft | 268 kts | 86° |
| 2026-05-01 09:00 | 49.99617 | 14.52777 | 8642 ft | 267 kts | 86° |
| 2026-05-01 09:00 | 49.99671 | 14.55648 | 8347 ft | 266 kts | 86° |
| 2026-05-01 09:00 | 49.99726 | 14.58520 | 8040 ft | 265 kts | 86° |
| 2026-05-01 09:00 | 49.99776 | 14.61389 | 7726 ft | 265 kts | 86° |
| 2026-05-01 09:01 | 49.99826 | 14.64241 | 7427 ft | 264 kts | 86° |
| 2026-05-01 09:01 | 49.99838 | 14.67104 | 7119 ft | 265 kts | 94° |
| 2026-05-01 09:01 | 49.99221 | 14.69831 | 6719 ft | 274 kts | 121° |
| 2026-05-01 09:01 | 49.97760 | 14.71702 | 6465 ft | 277 kts | 157° |
| 2026-05-01 09:02 | 49.95881 | 14.71985 | 6336 ft | 271 kts | 189° |
| 2026-05-01 09:02 | 49.94170 | 14.70912 | 6237 ft | 264 kts | 217° |
| 2026-05-01 09:02 | 49.92986 | 14.68816 | 6109 ft | 255 kts | 245° |
| 2026-05-01 09:02 | 49.92537 | 14.66251 | 5836 ft | 252 kts | 270° |
| 2026-05-01 09:03 | 49.92775 | 14.63552 | 5447 ft | 255 kts | 292° |
| 2026-05-01 09:03 | 49.93558 | 14.61086 | 5123 ft | 256 kts | 301° |
| 2026-05-01 09:03 | 49.94455 | 14.58691 | 5013 ft | 255 kts | 302° |
| 2026-05-01 09:03 | 49.95448 | 14.56396 | 4963 ft | 256 kts | 308° |
| 2026-05-01 09:04 | 49.96519 | 14.54206 | 4964 ft | 254 kts | 309° |
| 2026-05-01 09:04 | 49.97587 | 14.52017 | 4934 ft | 256 kts | 309° |
| 2026-05-01 09:04 | 49.98649 | 14.49817 | 4688 ft | 254 kts | 308° |
| 2026-05-01 09:04 | 49.99710 | 14.47602 | 4337 ft | 256 kts | 308° |
| 2026-05-01 09:05 | 50.00758 | 14.45406 | 4026 ft | 254 kts | 308° |
| 2026-05-01 09:05 | 50.01790 | 14.43238 | 3667 ft | 249 kts | 307° |
| 2026-05-01 09:05 | 50.02808 | 14.41113 | 3343 ft | 240 kts | 308° |
| 2026-05-01 09:05 | 50.03797 | 14.39080 | 3025 ft | 230 kts | 308° |
| 2026-05-01 09:06 | 50.04721 | 14.37170 | 2704 ft | 210 kts | 307° |
| 2026-05-01 09:06 | 50.05564 | 14.35402 | 2439 ft | 197 kts | 307° |
| 2026-05-01 09:06 | 50.06355 | 14.33757 | 2159 ft | 182 kts | 308° |
| 2026-05-01 09:06 | 50.07075 | 14.32265 | 1918 ft | 163 kts | 308° |
| 2026-05-01 09:07 | 50.07708 | 14.30947 | 1738 ft | 143 kts | 308° |
| 2026-05-01 09:07 | 50.08294 | 14.29733 | 1537 ft | 140 kts | 309° |
| 2026-05-01 09:07 | 50.08874 | 14.28524 | 1349 ft | 138 kts | 308° |
| 2026-05-01 09:07 | 50.09442 | 14.27347 | 1208 ft | 127 kts | 306° |
| 2026-05-01 09:08 | 50.09853 | 14.26498 | 1203 ft | 69 kts | 307° |
| 2026-05-01 09:08 | 50.10080 | 14.26028 | 1189 ft | 51 kts | 307° |
| 2026-05-01 09:08 | 50.10287 | 14.25693 | 1186 ft | 30 kts | 336° |
| 2026-05-01 09:08 | 50.10431 | 14.25661 | 1182 ft | 17 kts | 8° |
| 2026-05-01 09:09 | 50.10450 | 14.25667 | 1181 ft | 0 kts | 13° |
| 2026-05-01 09:09 | 50.10460 | 14.25670 | 1177 ft | 3 kts | 13° |
| 2026-05-01 09:09 | 50.10484 | 14.25694 | 1179 ft | 5 kts | 62° |
| 2026-05-01 09:09 | 50.10488 | 14.25759 | 1175 ft | 7 kts | 86° |
| 2026-05-01 09:10 | 50.10493 | 14.25804 | 1176 ft | 0 kts | 80° |
| 2026-05-01 09:10 | 50.10495 | 14.25820 | 1176 ft | 3 kts | 79° |
| 2026-05-01 09:10 | 50.10501 | 14.25866 | 1175 ft | 6 kts | 79° |
| 2026-05-01 09:11 | 50.10509 | 14.25935 | 1173 ft | 7 kts | 79° |
| 2026-05-01 09:11 | 50.10520 | 14.26019 | 1170 ft | 8 kts | 79° |
| 2026-05-01 09:11 | 50.10531 | 14.26110 | 1171 ft | 8 kts | 78° |
| 2026-05-01 09:11 | 50.10538 | 14.26199 | 1173 ft | 8 kts | 98° |
| 2026-05-01 09:12 | 50.10519 | 14.26281 | 1170 ft | 8 kts | 123° |
| 2026-05-01 09:12 | 50.10488 | 14.26351 | 1170 ft | 8 kts | 124° |
| 2026-05-01 09:12 | 50.10458 | 14.26420 | 1171 ft | 7 kts | 124° |
| 2026-05-01 09:12 | 50.10430 | 14.26485 | 1169 ft | 7 kts | 124° |
| 2026-05-01 09:13 | 50.10409 | 14.26540 | 1171 ft | 3 kts | 95° |
| 2026-05-01 09:13 | 50.10424 | 14.26571 | 1171 ft | 4 kts | 39° |
| 2026-05-01 09:13 | 50.10434 | 14.26582 | 1171 ft | 0 kts | 34° |